Data for 05/21/2016

Time Sea-Level Adjusted Pressure Absolute Pressure Temperature Relative Humidity Dew Point   
(mb) (inHg) (mb) (inHg) (C) (F) (%) (C) (F)
00:05 1011 29.85 840 24.81 9.1 48.4 92 7.9 46.3
00:10 1011 29.85 840 24.81 9.1 48.4 93 7.9 46.3
00:15 1011 29.85 840 24.81 9.1 48.4 93 8 46.4
00:20 1011 29.85 840 24.81 9.1 48.4 93 8.1 46.5
00:25 1011 29.85 840 24.81 9.1 48.4 93 8.1 46.5
00:30 1011 29.85 840 24.81 9.1 48.4 93 8.1 46.5
00:35 1011 29.85 840 24.81 9.1 48.4 93 8.1 46.5
00:40 1011 29.85 840 24.81 9.1 48.3 93 8 46.5
00:45 1011 29.85 840 24.81 9.1 48.3 93 8 46.4
00:50 1011 29.85 840 24.81 9 48.2 93 8 46.3
00:55 1011 29.85 840 24.81 9 48.1 93 8 46.3
01:00 1011 29.85 840 24.81 9 48.2 93 8 46.4
01:05 1011 29.85 840 24.81 8.9 48 93 7.9 46.2
01:10 1011 29.85 840 24.81 8.8 47.8 93 7.8 46
01:15 1011 29.85 840 24.81 8.7 47.7 93 7.7 45.9
01:20 1011 29.85 840 24.81 8.6 47.5 93 7.6 45.7
01:25 1011 29.85 840 24.81 8.6 47.5 93 7.6 45.7
01:30 1011 29.85 840 24.81 8.6 47.5 94 7.6 45.7
01:35 1011 29.85 840 24.81 8.6 47.5 94 7.6 45.8
01:40 1011 29.85 840 24.81 8.7 47.6 94 7.7 45.8
01:45 1011 29.85 840 24.81 8.6 47.5 93 7.6 45.7
01:50 1010 29.83 840 24.81 8.6 47.5 93 7.6 45.7
01:55 1010 29.83 840 24.81 8.6 47.5 93 7.6 45.7
02:00 1011 29.85 840 24.81 8.6 47.5 93 7.6 45.6
02:05 1010 29.83 840 24.81 8.7 47.7 93 7.6 45.7
02:10 1011 29.85 840 24.81 8.7 47.7 92 7.6 45.6
02:15 1011 29.85 840 24.81 8.8 47.8 92 7.6 45.7
02:20 1011 29.85 840 24.81 8.8 47.9 92 7.6 45.7
02:25 1011 29.85 840 24.81 8.9 48 92 7.6 45.8
02:30 1011 29.85 840 24.81 8.9 48.1 92 7.7 45.9
02:35 1011 29.85 840 24.81 9 48.1 92 7.7 45.9
02:40 1011 29.85 840 24.81 9.1 48.3 92 7.8 46.1
02:45 1011 29.85 840 24.81 9.1 48.3 92 7.8 46.1
02:50 1011 29.85 840 24.81 9.1 48.3 92 7.8 46.1
02:55 1011 29.85 840 24.81 9 48.1 93 7.8 46.1
03:00 1011 29.85 840 24.81 9 48.1 93 7.9 46.2
03:05 1011 29.85 841 24.83 9 48.1 93 7.9 46.3
03:10 1011 29.85 841 24.83 8.9 48.1 93 7.9 46.2
03:15 1012 29.88 841 24.83 8.8 47.8 93 7.7 45.9
03:20 1012 29.88 841 24.83 8.6 47.5 93 7.6 45.6
03:25 1012 29.88 841 24.83 8.4 47.1 93 7.3 45.2
03:30 1012 29.88 841 24.83 8.2 46.7 93 7.1 44.8
03:35 1012 29.88 841 24.83 8 46.4 93 7 44.5
03:40 1012 29.88 841 24.83 7.9 46.2 93 6.9 44.4
03:45 1012 29.88 841 24.83 7.8 46.1 93 6.8 44.3
03:50 1012 29.88 841 24.83 7.8 46 93 6.8 44.2
03:55 1012 29.88 841 24.83 7.7 45.8 94 6.7 44
04:00 1012 29.88 841 24.83 7.5 45.6 93 6.5 43.8
04:05 1012 29.88 841 24.83 7.5 45.4 93 6.5 43.6
04:10 1012 29.88 841 24.83 7.4 45.2 93 6.4 43.5
04:15 1011 29.85 841 24.83 7.3 45.2 94 6.3 43.4
04:20 1012 29.88 841 24.83 7.3 45.1 94 6.3 43.4
04:25 1011 29.85 841 24.83 7.2 44.9 94 6.2 43.2
04:30 1011 29.85 841 24.83 7.1 44.8 93 6.1 43
04:35 1011 29.85 840 24.81 7.1 44.9 94 6.2 43.1
04:40 1011 29.85 840 24.81 7.2 44.9 94 6.2 43.2
04:45 1011 29.85 840 24.81 7.1 44.8 94 6.1 43.1
04:50 1011 29.85 840 24.81 7.1 44.8 94 6.1 43
04:55 1011 29.85 840 24.81 7.2 44.9 94 6.2 43.1
05:00 1011 29.85 840 24.81 7.2 45 94 6.3 43.3
05:05 1011 29.85 840 24.81 7.2 44.9 94 6.2 43.2
05:10 1011 29.85 840 24.81 7.2 44.9 94 6.2 43.2
05:15 1011 29.85 840 24.81 7.3 45.1 94 6.3 43.3
05:20 1011 29.85 840 24.81 7.2 45 94 6.3 43.3
05:25 1011 29.85 840 24.81 7.3 45.1 94 6.3 43.4
05:30 1011 29.85 840 24.81 7.3 45.1 94 6.3 43.4
05:35 1011 29.85 840 24.81 7.3 45.1 94 6.3 43.4
05:40 1011 29.85 840 24.81 7.4 45.2 94 6.4 43.5
05:45 1011 29.85 840 24.81 7.4 45.3 94 6.5 43.6
05:50 1011 29.85 840 24.81 7.4 45.4 94 6.5 43.6
05:55 1011 29.85 840 24.81 7.5 45.5 94 6.6 43.8
06:00 1010 29.83 840 24.81 7.5 45.5 94 6.5 43.7
06:05 1010 29.83 840 24.81 7.5 45.5 93 6.5 43.7
06:10 1010 29.83 840 24.81 7.6 45.7 94 6.6 43.9
06:15 1010 29.83 840 24.81 7.7 45.8 94 6.7 44.1
06:20 1010 29.83 840 24.81 7.7 45.9 93 6.7 44.1
06:25 1010 29.83 840 24.81 7.8 46 93 6.8 44.2
06:30 1010 29.83 840 24.81 7.8 46 93 6.8 44.2
06:35 1010 29.83 840 24.81 7.8 46 93 6.8 44.2
06:40 1010 29.83 840 24.81 7.8 46 93 6.7 44.1
06:45 1010 29.83 840 24.81 7.7 45.9 93 6.7 44
06:50 1010 29.83 840 24.81 7.8 46 93 6.8 44.2
06:55 1010 29.83 840 24.81 7.8 46 93 6.7 44.1
07:00 1010 29.83 839 24.78 7.8 46 93 6.7 44.1
07:05 1010 29.83 839 24.78 7.9 46.2 93 6.8 44.3
07:10 1010 29.83 839 24.78 8 46.5 93 7 44.5
07:15 1010 29.83 839 24.78 8.1 46.5 92 6.9 44.5
07:20 1010 29.83 839 24.78 8.1 46.6 92 7 44.6
07:25 1010 29.83 839 24.78 8.2 46.7 92 6.9 44.5
07:30 1010 29.83 840 24.81 8.2 46.7 91 6.9 44.4
07:35 1010 29.83 840 24.81 8.1 46.6 92 6.8 44.2
07:40 1011 29.85 840 24.81 7.9 46.3 91 6.6 43.9
07:45 1011 29.85 840 24.81 7.6 45.7 92 6.3 43.4
07:50 1011 29.85 840 24.81 7.4 45.3 92 6.2 43.1
07:55 1011 29.85 840 24.81 7.2 44.9 92 5.9 42.7
08:00 1010 29.83 840 24.81 7 44.6 92 5.8 42.4
08:05 1010 29.83 840 24.81 6.9 44.4 92 5.7 42.3
08:10 1010 29.83 839 24.78 6.9 44.5 92 5.7 42.3
08:15 1010 29.83 839 24.78 7 44.5 92 5.8 42.4
08:20 1010 29.83 840 24.81 6.8 44.2 92 5.6 42.1
08:25 1010 29.83 839 24.78 6.7 44 92 5.5 41.9
08:30 1010 29.83 839 24.78 6.6 43.8 92 5.3 41.6
08:35 1010 29.83 839 24.78 6.5 43.7 92 5.3 41.6
08:40 1010 29.83 839 24.78 6.5 43.8 92 5.3 41.6
08:45 1010 29.83 839 24.78 6.5 43.7 92 5.3 41.5
08:50 1010 29.83 839 24.78 6.5 43.7 91 5.2 41.3
08:55 1010 29.83 839 24.78 6.5 43.7 92 5.3 41.5
09:00 1010 29.83 839 24.78 6.6 43.8 92 5.3 41.6
09:05 1010 29.83 839 24.78 6.5 43.8 92 5.3 41.5
09:10 1010 29.83 839 24.78 6.6 43.8 92 5.3 41.5
09:15 1010 29.83 839 24.78 6.5 43.6 92 5.2 41.4
09:20 1010 29.83 839 24.78 6.5 43.6 92 5.2 41.4
09:25 1010 29.83 839 24.78 6.4 43.6 92 5.2 41.4
09:30 1010 29.83 839 24.78 6.4 43.5 92 5.2 41.3
09:35 1010 29.83 839 24.78 6.3 43.4 92 5.1 41.2
09:40 1010 29.83 839 24.78 6.3 43.4 92 5.1 41.3
09:45 1010 29.83 839 24.78 6.2 43.2 92 5.1 41.1
09:50 1010 29.83 840 24.81 6.2 43.2 93 5.1 41.2
09:55 1010 29.83 840 24.81 6.2 43.1 92 5 41
10:00 1010 29.83 840 24.81 6.2 43.1 92 5.1 41.1
10:05 1010 29.83 840 24.81 6.2 43.2 93 5.1 41.2
10:10 1010 29.83 839 24.78 6.3 43.3 93 5.2 41.3
10:15 1010 29.83 839 24.78 6.4 43.4 93 5.3 41.5
10:20 1010 29.83 840 24.81 6.4 43.5 93 5.3 41.6
10:25 1011 29.85 840 24.81 6.5 43.8 92 5.4 41.7
10:30 1010 29.83 840 24.81 6.9 44.5 93 5.8 42.5
10:35 1010 29.83 839 24.78 7.4 45.3 92 6.2 43.1
10:40 1010 29.83 839 24.78 7.7 45.8 91 6.3 43.3
10:45 1010 29.83 839 24.78 7.9 46.1 89 6.1 43
10:50 1010 29.83 839 24.78 7.8 46.1 90 6.2 43.2
10:55 1010 29.83 839 24.78 7.9 46.2 89 6.2 43.2
11:00 1010 29.83 839 24.78 7.8 46 90 6.3 43.3
11:05 1010 29.83 839 24.78 7.8 46.1 89 6.2 43.1
11:10 1010 29.83 839 24.78 7.8 46 88 6 42.8
11:15 1011 29.85 840 24.81 7.6 45.6 89 5.9 42.6
11:20 1010 29.83 840 24.81 7.3 45.2 89 5.7 42.2
11:25 1010 29.83 839 24.78 7.2 44.9 90 5.7 42.2
11:30 1010 29.83 839 24.78 7.3 45.2 91 6 42.8
11:35 1010 29.83 839 24.78 7.9 46.2 91 6.5 43.7
11:40 1010 29.83 839 24.78 8.3 46.9 87 6.3 43.3
11:45 1010 29.83 839 24.78 8.3 46.9 87 6.2 43.1
11:50 1010 29.83 840 24.81 8.7 47.6 87 6.6 43.8
11:55 1010 29.83 840 24.81 9.3 48.7 83 6.5 43.8
12:00 1011 29.85 840 24.81 9.4 48.9 82 6.5 43.6
12:05 1011 29.85 840 24.81 9.3 48.7 80 6 42.8
12:10 1010 29.83 840 24.81 9.1 48.4 81 6.1 43
12:15 1011 29.85 840 24.81 9 48.3 82 6.1 43
12:20 1011 29.85 840 24.81 8.8 47.8 82 5.8 42.5
12:25 1011 29.85 840 24.81 8.6 47.4 82 5.7 42.3
12:30 1010 29.83 840 24.81 8.5 47.2 83 5.7 42.3
12:35 1011 29.85 840 24.81 8.6 47.4 84 6.1 42.9
12:40 1011 29.85 840 24.81 8.7 47.7 82 5.9 42.6
12:45 1011 29.85 840 24.81 8.8 47.9 82 5.9 42.6
12:50 1011 29.85 840 24.81 9 48.1 80 5.7 42.3
12:55 1011 29.85 840 24.81 9.1 48.4 79 5.6 42.1
13:00 1011 29.85 840 24.81 9.2 48.6 81 6.1 42.9
13:05 1011 29.85 840 24.81 9.3 48.8 80 6.1 42.9
13:10 1010 29.83 840 24.81 9.2 48.6 79 5.8 42.5
13:15 1011 29.85 840 24.81 9 48.1 80 5.7 42.3
13:20 1011 29.85 840 24.81 9.1 48.4 79 5.8 42.4
13:25 1011 29.85 840 24.81 9.1 48.4 78 5.4 41.7
13:30 1011 29.85 840 24.81 9.2 48.5 78 5.5 42
13:35 1011 29.85 840 24.81 9.5 49.1 77 5.6 42.1
13:40 1011 29.85 840 24.81 9.7 49.4 75 5.4 41.8
13:45 1011 29.85 840 24.81 9.9 49.8 78 6.2 43.2
13:50 1011 29.85 840 24.81 10.4 50.7 74 6 42.7
13:55 1011 29.85 840 24.81 10.8 51.5 74 6.4 43.5
14:00 1010 29.83 840 24.81 11.6 52.8 71 6.6 43.8
14:05 1010 29.83 839 24.78 12 53.5 66 5.9 42.6
14:10 1010 29.83 839 24.78 12 53.6 63 5.1 41.3
14:15 1010 29.83 839 24.78 12 53.5 65 5.7 42.2
14:20 1010 29.83 839 24.78 12.9 55.1 62 5.7 42.3
14:25 1010 29.83 839 24.78 12.2 54 60 4.6 40.3
14:30 1010 29.83 839 24.78 12.5 54.5 58 4.6 40.3
14:35 1010 29.83 839 24.78 12.4 54.2 62 5.2 41.4
14:40 1010 29.83 839 24.78 12.4 54.3 61 5.2 41.3
14:45 1010 29.83 839 24.78 12.2 53.9 63 5.4 41.8
14:50 1010 29.83 839 24.78 12.4 54.2 62 5.3 41.5
14:55 1010 29.83 839 24.78 12.3 54.1 60 4.8 40.6
15:00 1010 29.83 839 24.78 12.6 54.8 58 4.7 40.4
15:05 1010 29.83 839 24.78 12.6 54.7 59 4.8 40.6
15:10 1010 29.83 839 24.78 12.4 54.3 58 4.4 40
15:15 1010 29.83 839 24.78 12.9 55.1 57 4.6 40.4
15:20 1010 29.83 840 24.81 12.5 54.5 60 5 41
15:25 1010 29.83 840 24.81 13 55.3 56 4.4 39.9
15:30 1011 29.85 840 24.81 13.4 56.1 55 4.7 40.5
15:35 1010 29.83 840 24.81 12.9 55.2 58 4.8 40.7
15:40 1010 29.83 840 24.81 12.9 55.1 58 4.9 40.8
15:45 1010 29.83 840 24.81 13.2 55.7 56 4.6 40.3
15:50 1010 29.83 839 24.78 13.3 55.9 57 4.9 40.9
15:55 1010 29.83 839 24.78 12.9 55.2 57 4.7 40.4
16:00 1010 29.83 839 24.78 13.3 55.9 43 1.1 33.9
16:05 1010 29.83 839 24.78 13.4 56.2 42 0.8 33.4
16:10 1010 29.83 839 24.78 13.4 56.2 40 0.2 32.4
16:15 1010 29.83 839 24.78 13.6 56.5 42 0.9 33.6
16:20 1010 29.83 839 24.78 13.7 56.6 39 0 32.1
16:25 1010 29.83 839 24.78 13.7 56.7 44 1.9 35.5
16:30 1010 29.83 839 24.78 13.9 57.1 40 0.5 32.8
16:35 1010 29.83 839 24.78 13.9 56.9 39 0.1 32.3
16:40 1010 29.83 839 24.78 13.7 56.7 37 -0.5 31.2
16:45 1010 29.83 839 24.78 13.8 56.8 40 0.4 32.6
16:50 1010 29.83 839 24.78 13.6 56.5 36 -1 30.2
16:55 1010 29.83 839 24.78 13.5 56.2 38 -0.6 30.9
17:00 1010 29.83 839 24.78 13.8 56.9 38 -0.2 31.7
17:05 1010 29.83 839 24.78 13.5 56.2 37 -0.7 30.7
17:10 1010 29.83 839 24.78 13.6 56.5 37 -0.6 31
17:15 1010 29.83 839 24.78 13.7 56.7 37 -0.6 30.9
17:20 1010 29.83 839 24.78 13.6 56.6 36 -1.1 29.9
17:25 1010 29.83 839 24.78 13.6 56.6 35 -1.5 29.3
17:30 1010 29.83 839 24.78 13.6 56.4 36 -1.2 29.9
17:35 1010 29.83 839 24.78 13.7 56.6 36 -0.9 30.4
17:40 1010 29.83 839 24.78 13.7 56.7 36 -1 30.2
17:45 1010 29.83 839 24.78 13.7 56.7 34 -1.6 29.1
17:50 1010 29.83 839 24.78 13.8 56.8 35 -1.3 29.7
17:55 1010 29.83 839 24.78 13.8 56.8 36 -0.9 30.3
18:00 1010 29.83 839 24.78 13.9 57 35 -1.2 29.8
18:05 1010 29.83 839 24.78 13.7 56.7 36 -1 30.2
18:10 1010 29.83 839 24.78 13.6 56.5 35 -1.6 29.1
18:15 1010 29.83 839 24.78 13.3 55.9 35 -1.9 28.5
18:20 1010 29.83 839 24.78 13.1 55.6 36 -1.6 29.1
18:25 1010 29.83 839 24.78 12.8 55 36 -1.7 29
18:30 1010 29.83 839 24.78 12.7 54.9 40 -0.6 30.9
18:35 1010 29.83 839 24.78 12.7 54.9 39 -0.6 30.8
18:40 1010 29.83 839 24.78 12.5 54.6 40 -0.6 30.8
18:45 1010 29.83 840 24.81 12.3 54.1 37 -1.8 28.8
18:50 1010 29.83 840 24.81 12.1 53.8 38 -1.9 28.6
18:55 1010 29.83 839 24.78 11.9 53.5 37 -2.2 28
19:00 1010 29.83 839 24.78 11.8 53.3 37 -2.4 27.7
19:05 1010 29.83 839 24.78 11.6 52.8 38 -2.1 28.2
19:10 1010 29.83 839 24.78 11.5 52.7 38 -2.3 27.8
19:15 1010 29.83 839 24.78 11.4 52.5 38 -2.2 28
19:20 1010 29.83 839 24.78 11.3 52.4 37 -3 26.7
19:25 1010 29.83 840 24.81 11.3 52.4 38 -2.5 27.5
19:30 1010 29.83 840 24.81 11.3 52.3 37 -2.8 26.9
19:35 1010 29.83 840 24.81 11.1 52 39 -2.2 28.1
19:40 1011 29.85 840 24.81 10.9 51.5 40 -2 28.4
19:45 1010 29.83 840 24.81 10.8 51.4 38 -3 26.6
19:50 1010 29.83 840 24.81 10.9 51.5 39 -2.4 27.6
19:55 1010 29.83 840 24.81 10.7 51.2 40 -2.5 27.6
20:00 1011 29.85 840 24.81 10.6 51 41 -1.9 28.5
20:05 1011 29.85 840 24.81 10.3 50.5 41 -2.4 27.7
20:10 1011 29.85 840 24.81 10.2 50.3 38 -3.6 25.5
20:15 1011 29.85 840 24.81 10.4 50.6 40 -2.5 27.5
20:20 1011 29.85 840 24.81 10 49.9 43 -2 28.4
20:25 1011 29.85 840 24.81 9.5 49.1 48 -0.9 30.3
20:30 1011 29.85 841 24.83 9.4 49 44 -2 28.3
20:35 1011 29.85 841 24.83 9.5 49.1 44 -2 28.4
20:40 1011 29.85 841 24.83 9.3 48.7 46 -1.7 29
20:45 1012 29.88 841 24.83 8.8 47.8 48 -1.6 29.1
20:50 1012 29.88 841 24.83 8.4 47.2 48 -1.8 28.8
20:55 1012 29.88 841 24.83 8.3 46.9 51 -1.2 29.8
21:00 1012 29.88 841 24.83 8.2 46.7 49 -1.9 28.5
21:05 1012 29.88 841 24.83 8.4 47.2 47 -2.1 28.1
21:10 1012 29.88 841 24.83 8.6 47.4 46 -2.4 27.7
21:15 1012 29.88 841 24.83 8.6 47.6 48 -1.8 28.8
21:20 1012 29.88 841 24.83 8.4 47.2 46 -2.4 27.7
21:25 1012 29.88 841 24.83 8.5 47.4 47 -2.3 27.9
21:30 1012 29.88 841 24.83 8.5 47.3 45 -2.8 26.9
21:35 1012 29.88 841 24.83 8.5 47.3 50 -1.4 29.5
21:40 1012 29.88 841 24.83 7.9 46.1 51 -1.7 29
21:45 1012 29.88 841 24.83 7.5 45.6 52 -1.6 29.1
21:50 1012 29.88 841 24.83 7.6 45.8 50 -2.1 28.2
21:55 1012 29.88 841 24.83 7.7 45.9 52 -1.6 29.1
22:00 1012 29.88 841 24.83 7.4 45.3 53 -1.5 29.2
22:05 1012 29.88 841 24.83 7 44.7 55 -1.4 29.5
22:10 1012 29.88 841 24.83 7.3 45.1 49 -2.7 27.2
22:15 1012 29.88 841 24.83 7.6 45.7 54 -1.2 29.9
22:20 1012 29.88 841 24.83 7 44.6 50 -2.6 27.3
22:25 1012 29.88 841 24.83 7.7 45.9 48 -2.6 27.3
22:30 1012 29.88 841 24.83 8.2 46.7 48 -2.3 27.9
22:35 1012 29.88 841 24.83 8.2 46.8 48 -2.2 28
22:40 1012 29.88 841 24.83 8.4 47.1 47 -2.2 28.1
22:45 1012 29.88 841 24.83 8.3 47 48 -2 28.5
22:50 1012 29.88 841 24.83 8 46.5 49 -1.9 28.6
22:55 1012 29.88 841 24.83 8.1 46.5 48 -2.1 28.2
23:00 1012 29.88 841 24.83 8.2 46.8 48 -2.1 28.1
23:05 1012 29.88 841 24.83 8.3 46.9 47 -2.2 28
23:10 1012 29.88 841 24.83 8.3 46.9 47 -2.3 27.8
23:15 1012 29.88 841 24.83 8.3 46.9 47 -2.5 27.5
23:20 1012 29.88 841 24.83 8 46.5 52 -1.3 29.7
23:25 1012 29.88 841 24.83 7 44.7 54 -1.6 29
23:30 1012 29.88 841 24.83 6.9 44.5 53 -1.9 28.5
23:35 1012 29.88 841 24.83 7 44.6 53 -1.8 28.8
23:40 1012 29.88 841 24.83 6.7 44.1 53 -2.2 28
23:45 1012 29.88 841 24.83 6.9 44.4 50 -2.8 27
23:50 1012 29.88 841 24.83 7.4 45.3 47 -3.2 26.2
23:55 1012 29.88 841 24.83 7.5 45.5 47 -3 26.6
24:00 1012 29.88 841 24.83 7.5 45.5 46 -3.5 25.8